createdAt,value
2022-12-31T00:01:37.192Z,82.54
2022-12-31T00:04:05.768Z,82.74
2022-12-31T00:06:36.354Z,82.69
2022-12-31T00:09:08.938Z,82.46
2022-12-31T00:11:38.517Z,82.58
2022-12-31T00:14:08.142Z,82.68
2022-12-31T00:16:41.497Z,82.87
2022-12-31T00:19:12.286Z,83.45
2022-12-31T00:21:40.773Z,83.49
2022-12-31T00:24:11.380Z,82.87
2022-12-31T00:26:39.785Z,82.88
2022-12-31T00:29:08.297Z,82.95
2022-12-31T00:31:39.134Z,82.80
2022-12-31T00:34:07.776Z,82.81
2022-12-31T00:36:39.414Z,82.65
2022-12-31T00:39:08.674Z,82.86
2022-12-31T00:41:37.403Z,82.84
2022-12-31T00:44:06.046Z,82.84
2022-12-31T00:49:02.332Z,83.73
2022-12-31T00:51:30.693Z,83.63
2022-12-31T00:53:59.503Z,83.58
2022-12-31T00:56:31.072Z,83.41
2022-12-31T00:59:00.170Z,83.31
2022-12-31T01:01:36.033Z,83.58
2022-12-31T01:04:12.826Z,83.36
2022-12-31T01:06:42.820Z,83.44
2022-12-31T01:09:14.585Z,83.41
2022-12-31T01:11:42.982Z,83.21
2022-12-31T01:14:18.259Z,83.34
2022-12-31T01:16:53.217Z,83.52
2022-12-31T01:19:29.285Z,83.52
2022-12-31T01:21:57.864Z,83.56
2022-12-31T01:24:26.218Z,83.56
2022-12-31T01:26:57.817Z,83.43
2022-12-31T01:29:28.009Z,83.71
2022-12-31T01:31:56.729Z,83.19
2022-12-31T01:34:25.203Z,83.47
2022-12-31T01:36:53.557Z,83.45
2022-12-31T01:39:22.033Z,83.75
2022-12-31T01:41:50.320Z,84.02
2022-12-31T01:44:27.795Z,83.95
2022-12-31T01:47:08.312Z,83.84
2022-12-31T01:49:58.578Z,83.51
2022-12-31T01:52:40.236Z,83.73
2022-12-31T01:55:33.243Z,83.89
2022-12-31T01:58:46.321Z,83.64
2022-12-31T02:01:19.485Z,83.60
2022-12-31T02:03:47.820Z,83.69
2022-12-31T02:06:23.103Z,84.11
2022-12-31T02:08:51.827Z,84.62
2022-12-31T02:11:29.723Z,84.47
2022-12-31T02:14:04.659Z,84.20
2022-12-31T02:16:55.636Z,83.60
2022-12-31T02:19:55.697Z,83.58
2022-12-31T02:22:51.842Z,83.37
2022-12-31T02:26:05.694Z,83.77
2022-12-31T02:28:57.333Z,84.21
2022-12-31T02:31:33.035Z,83.84
2022-12-31T02:34:12.155Z,83.92
2022-12-31T02:36:45.253Z,83.65
2022-12-31T02:39:14.843Z,83.70
2022-12-31T02:41:52.631Z,83.83
2022-12-31T02:44:33.881Z,84.04
2022-12-31T02:47:08.133Z,84.16
2022-12-31T02:50:13.854Z,84.45
2022-12-31T02:52:53.058Z,83.83
2022-12-31T02:55:35.521Z,83.44
2022-12-31T02:58:14.445Z,83.23
2022-12-31T03:01:10.391Z,82.79
2022-12-31T03:03:39.525Z,82.98
2022-12-31T03:06:10.228Z,83.15
2022-12-31T03:09:02.258Z,83.58
2022-12-31T03:11:49.792Z,83.75
2022-12-31T03:14:18.296Z,83.62
2022-12-31T03:16:46.973Z,83.85
2022-12-31T03:19:33.702Z,83.77
2022-12-31T03:22:20.559Z,83.39
2022-12-31T03:25:07.370Z,83.30
2022-12-31T03:27:35.771Z,83.23
2022-12-31T03:30:05.256Z,83.24
2022-12-31T03:32:34.167Z,83.01
2022-12-31T03:35:02.858Z,82.77
2022-12-31T03:37:31.202Z,83.01
2022-12-31T03:39:59.474Z,82.67
2022-12-31T03:42:27.794Z,82.13
2022-12-31T03:44:56.094Z,82.13
2022-12-31T03:47:24.231Z,82.10
2022-12-31T03:49:53.323Z,82.31
2022-12-31T03:52:21.861Z,82.39
2022-12-31T03:54:50.996Z,82.14
2022-12-31T03:57:19.603Z,82.42
2022-12-31T03:59:47.984Z,82.52
2022-12-31T04:02:16.715Z,82.65
2022-12-31T04:04:45.150Z,82.52
2022-12-31T04:07:13.551Z,82.24
2022-12-31T04:09:42.386Z,82.19
2022-12-31T04:12:10.770Z,82.46
2022-12-31T04:14:38.952Z,82.37
2022-12-31T04:17:07.363Z,82.39
2022-12-31T04:19:35.674Z,82.25
2022-12-31T04:22:04.643Z,82.29
2022-12-31T04:24:32.980Z,82.36
2022-12-31T04:27:07.264Z,82.35
2022-12-31T04:29:37.334Z,82.40
2022-12-31T04:32:08.291Z,82.22
2022-12-31T04:34:36.818Z,82.41
2022-12-31T04:37:05.180Z,82.44
2022-12-31T04:39:33.456Z,82.15
2022-12-31T04:42:01.782Z,82.24
2022-12-31T04:44:30.123Z,82.00
2022-12-31T04:46:58.437Z,82.05
2022-12-31T04:49:26.774Z,82.46
2022-12-31T04:51:55.016Z,82.47
2022-12-31T04:54:23.360Z,82.19
2022-12-31T04:56:51.656Z,82.16
2022-12-31T04:59:19.858Z,82.14
2022-12-31T05:01:48.195Z,82.20
2022-12-31T05:04:16.560Z,82.04
2022-12-31T05:06:44.850Z,82.25
2022-12-31T05:09:13.032Z,82.71
2022-12-31T05:11:41.261Z,83.11
2022-12-31T05:14:09.470Z,82.83
2022-12-31T05:16:38.292Z,82.78
2022-12-31T05:19:09.668Z,82.54
2022-12-31T05:21:38.863Z,82.23
2022-12-31T05:24:07.904Z,82.57
2022-12-31T05:26:36.259Z,82.69
2022-12-31T05:29:04.591Z,82.63
2022-12-31T05:31:32.910Z,82.48
2022-12-31T05:34:02.113Z,82.55
2022-12-31T05:36:30.529Z,82.44
2022-12-31T05:38:58.830Z,82.39
2022-12-31T05:41:27.077Z,82.60
2022-12-31T05:43:55.277Z,82.65
2022-12-31T05:46:23.637Z,82.74
2022-12-31T05:48:52.035Z,82.57
2022-12-31T05:51:20.307Z,82.89
2022-12-31T05:53:48.584Z,82.36
2022-12-31T05:56:17.898Z,82.33
2022-12-31T05:58:46.167Z,82.36
2022-12-31T06:01:14.559Z,82.47
2022-12-31T06:03:42.809Z,82.54
2022-12-31T06:06:11.215Z,82.64
2022-12-31T06:08:39.590Z,82.67
2022-12-31T06:11:07.946Z,82.57
2022-12-31T06:13:36.787Z,82.57
2022-12-31T06:16:07.717Z,82.77
2022-12-31T06:18:35.891Z,82.64
2022-12-31T06:21:04.576Z,82.67
2022-12-31T06:23:32.979Z,82.72
2022-12-31T06:26:06.213Z,82.35
2022-12-31T06:28:35.241Z,82.40
2022-12-31T06:31:06.693Z,82.53
2022-12-31T06:33:35.787Z,82.98
2022-12-31T06:36:08.022Z,82.98
2022-12-31T06:38:38.977Z,83.16
2022-12-31T06:41:10.390Z,83.01
2022-12-31T06:43:40.233Z,82.91
2022-12-31T06:46:13.229Z,82.86
2022-12-31T06:48:44.718Z,82.95
2022-12-31T06:51:18.090Z,82.86
2022-12-31T06:53:49.624Z,82.75
2022-12-31T06:56:33.949Z,82.68
2022-12-31T06:59:05.031Z,82.52
2022-12-31T07:01:42.411Z,82.39
2022-12-31T07:04:46.031Z,82.44
2022-12-31T07:07:26.870Z,82.12
2022-12-31T07:10:16.374Z,82.24
2022-12-31T07:13:03.927Z,82.30
2022-12-31T07:16:00.306Z,82.28
2022-12-31T07:18:40.978Z,82.34
2022-12-31T07:21:15.767Z,82.85
2022-12-31T07:23:44.533Z,82.94
2022-12-31T07:26:29.996Z,82.48
2022-12-31T07:29:12.923Z,82.35
2022-12-31T07:32:15.608Z,81.88
2022-12-31T07:35:13.872Z,81.99
2022-12-31T07:38:34.183Z,82.24
2022-12-31T07:41:34.184Z,82.28
2022-12-31T07:44:34.950Z,82.35
2022-12-31T07:47:06.102Z,82.00
2022-12-31T07:49:44.798Z,81.90
2022-12-31T07:52:13.826Z,81.81
2022-12-31T07:54:42.183Z,81.64
2022-12-31T07:57:13.717Z,81.60
2022-12-31T07:59:52.282Z,81.62
2022-12-31T08:03:08.824Z,81.50
2022-12-31T08:06:05.075Z,81.44
2022-12-31T08:09:01.543Z,81.39
2022-12-31T08:11:57.427Z,81.26
2022-12-31T08:14:29.355Z,81.44
2022-12-31T08:16:58.283Z,81.27
2022-12-31T08:19:31.629Z,81.30
2022-12-31T08:22:27.230Z,81.29
2022-12-31T08:25:17.328Z,81.37
2022-12-31T08:28:52.254Z,81.87
2022-12-31T08:31:28.549Z,81.82
2022-12-31T08:34:14.984Z,81.89
2022-12-31T08:37:03.499Z,81.97
2022-12-31T08:39:50.089Z,82.09
2022-12-31T08:42:43.338Z,82.40
2022-12-31T08:45:43.253Z,82.64
2022-12-31T08:48:19.772Z,82.47
2022-12-31T08:50:49.843Z,82.53
2022-12-31T08:53:25.069Z,82.64
2022-12-31T08:56:10.610Z,82.38
2022-12-31T08:59:07.187Z,82.38
2022-12-31T09:02:00.395Z,82.67
2022-12-31T09:05:09.193Z,82.27
2022-12-31T09:07:44.402Z,81.75
2022-12-31T09:10:30.963Z,81.41
2022-12-31T09:13:10.454Z,81.36
2022-12-31T09:15:59.407Z,81.03
2022-12-31T09:18:33.341Z,80.53
2022-12-31T09:21:02.110Z,80.18
2022-12-31T09:23:30.795Z,80.19
2022-12-31T09:26:29.783Z,80.39
2022-12-31T09:29:16.012Z,80.45
2022-12-31T09:32:17.324Z,80.24
2022-12-31T09:35:13.152Z,79.79
2022-12-31T09:37:50.172Z,79.40
2022-12-31T09:40:58.118Z,79.15
2022-12-31T09:44:03.743Z,79.19
2022-12-31T09:47:28.744Z,79.45
2022-12-31T09:50:34.500Z,79.23
2022-12-31T09:53:41.136Z,79.20
2022-12-31T09:56:36.921Z,78.85
2022-12-31T09:59:29.707Z,78.83
2022-12-31T10:02:17.977Z,78.65
2022-12-31T10:05:11.487Z,78.46
2022-12-31T10:08:07.317Z,78.60
2022-12-31T10:10:58.856Z,78.70
2022-12-31T10:14:10.691Z,78.63
2022-12-31T10:16:59.704Z,78.44
2022-12-31T10:20:02.682Z,78.34
2022-12-31T10:22:36.799Z,78.45
2022-12-31T10:25:38.111Z,78.60
2022-12-31T10:28:43.494Z,78.65
2022-12-31T10:31:36.836Z,78.47
2022-12-31T10:34:16.246Z,78.69
2022-12-31T10:36:58.489Z,78.58
2022-12-31T10:40:04.910Z,78.48
2022-12-31T10:43:10.468Z,78.19
2022-12-31T10:46:00.208Z,77.94
2022-12-31T10:48:53.704Z,77.95
2022-12-31T10:52:05.170Z,77.95
2022-12-31T10:54:54.048Z,78.15
2022-12-31T10:57:25.182Z,78.09
2022-12-31T11:00:25.193Z,78.29
2022-12-31T11:03:41.477Z,78.10
2022-12-31T11:06:29.106Z,78.07
2022-12-31T11:09:34.756Z,77.89
2022-12-31T11:12:12.962Z,77.97
2022-12-31T11:15:12.565Z,77.81
2022-12-31T11:18:26.179Z,77.71
2022-12-31T11:21:28.212Z,77.78
2022-12-31T11:24:11.460Z,78.22
2022-12-31T11:27:18.364Z,78.37
2022-12-31T11:30:16.972Z,78.03
2022-12-31T11:33:27.309Z,77.63
2022-12-31T11:36:13.000Z,77.31
2022-12-31T11:39:15.493Z,76.69
2022-12-31T11:41:54.824Z,76.70
2022-12-31T11:44:47.331Z,76.66
2022-12-31T11:51:15.465Z,76.56
2022-12-31T11:54:24.951Z,76.30
2022-12-31T11:57:38.980Z,75.47
2022-12-31T12:00:20.574Z,75.23
2022-12-31T12:02:59.674Z,75.25
2022-12-31T12:05:36.089Z,74.66
2022-12-31T12:08:05.021Z,74.46
2022-12-31T12:11:06.907Z,74.03
2022-12-31T12:13:35.342Z,74.24
2022-12-31T12:16:08.618Z,74.68
2022-12-31T12:19:01.084Z,75.38
2022-12-31T12:21:30.084Z,75.43
2022-12-31T12:24:04.054Z,75.38
2022-12-31T12:26:38.977Z,75.58
2022-12-31T12:29:12.961Z,75.59
2022-12-31T12:31:41.313Z,75.41
2022-12-31T12:34:32.070Z,75.18
2022-12-31T12:37:01.357Z,75.14
2022-12-31T12:39:35.078Z,75.07
2022-12-31T12:42:16.254Z,75.07
2022-12-31T12:44:44.478Z,75.32
2022-12-31T12:47:18.533Z,75.54
2022-12-31T12:49:54.494Z,75.70
2022-12-31T12:52:49.260Z,75.57
2022-12-31T12:56:08.801Z,75.54
2022-12-31T12:59:02.022Z,75.36
2022-12-31T13:01:39.028Z,75.49
2022-12-31T13:04:35.064Z,75.68
2022-12-31T13:07:27.271Z,76.01
2022-12-31T13:10:16.298Z,76.21
2022-12-31T13:16:05.645Z,76.33
2022-12-31T13:19:10.420Z,76.17
2022-12-31T13:21:44.746Z,76.28
2022-12-31T13:24:58.309Z,76.13
2022-12-31T13:27:46.835Z,76.34
2022-12-31T13:30:44.439Z,76.65
2022-12-31T13:33:25.823Z,76.92
2022-12-31T13:36:03.613Z,77.03
2022-12-31T13:38:37.212Z,77.07
2022-12-31T13:41:20.727Z,77.02
2022-12-31T13:44:11.719Z,77.10
2022-12-31T13:47:22.358Z,77.22
2022-12-31T13:50:21.989Z,77.35
2022-12-31T13:53:15.186Z,77.51
2022-12-31T13:55:58.031Z,77.69
2022-12-31T13:59:05.327Z,77.67
2022-12-31T14:01:44.026Z,77.44
2022-12-31T14:04:52.330Z,77.45
2022-12-31T14:08:00.944Z,77.56
2022-12-31T14:10:59.350Z,77.81
2022-12-31T14:13:52.083Z,77.93
2022-12-31T14:16:38.603Z,78.24
2022-12-31T14:19:41.721Z,78.41
2022-12-31T14:22:25.759Z,78.93
2022-12-31T14:24:57.984Z,79.02
2022-12-31T14:27:35.909Z,78.88
2022-12-31T14:30:23.428Z,79.14
2022-12-31T14:33:25.355Z,79.40
2022-12-31T14:36:40.935Z,79.35
2022-12-31T14:39:58.567Z,79.54
2022-12-31T14:42:45.424Z,79.37
2022-12-31T14:45:38.955Z,79.75
2022-12-31T14:48:42.274Z,79.85
2022-12-31T14:51:13.072Z,79.84
2022-12-31T14:53:52.689Z,79.54
2022-12-31T14:56:45.488Z,79.61
2022-12-31T14:59:40.779Z,79.57
2022-12-31T15:02:28.365Z,79.36
2022-12-31T15:05:12.125Z,79.52
2022-12-31T15:08:14.821Z,79.74
2022-12-31T15:11:07.707Z,79.78
2022-12-31T15:14:26.153Z,79.94
2022-12-31T15:17:26.792Z,79.84
2022-12-31T15:20:18.924Z,79.89
2022-12-31T15:22:50.241Z,79.96
2022-12-31T15:25:41.685Z,80.04
2022-12-31T15:28:40.844Z,80.12
2022-12-31T15:31:20.452Z,80.10
2022-12-31T15:34:24.340Z,80.28
2022-12-31T15:36:56.552Z,80.28
2022-12-31T15:39:46.453Z,80.36
2022-12-31T15:42:49.712Z,80.33
2022-12-31T15:45:28.041Z,80.34
2022-12-31T15:48:02.127Z,80.15
2022-12-31T15:50:31.144Z,80.02
2022-12-31T15:53:04.087Z,80.26
2022-12-31T15:55:51.141Z,80.72
2022-12-31T15:58:35.946Z,81.04
2022-12-31T16:01:23.553Z,81.20
2022-12-31T16:03:57.762Z,81.13
2022-12-31T16:06:29.762Z,80.69
2022-12-31T16:08:58.781Z,80.62
2022-12-31T16:11:30.529Z,80.61
2022-12-31T16:14:00.638Z,80.82
2022-12-31T16:16:32.129Z,80.71
2022-12-31T16:19:01.186Z,81.22
2022-12-31T16:21:38.053Z,81.63
2022-12-31T16:24:32.262Z,81.90
2022-12-31T16:27:09.231Z,82.03
2022-12-31T16:29:58.113Z,82.11
2022-12-31T16:32:26.731Z,81.93
2022-12-31T16:34:55.057Z,81.37
2022-12-31T16:37:23.841Z,81.27
2022-12-31T16:39:58.153Z,81.27
2022-12-31T16:42:30.931Z,81.02
2022-12-31T16:45:16.376Z,80.75
2022-12-31T16:47:45.184Z,80.96
2022-12-31T16:50:24.519Z,81.11
2022-12-31T16:53:05.434Z,81.12
2022-12-31T16:55:36.056Z,81.06
2022-12-31T16:58:32.224Z,81.20
2022-12-31T17:01:31.478Z,81.08
2022-12-31T17:04:06.083Z,81.45
2022-12-31T17:06:34.499Z,81.21
2022-12-31T17:09:14.452Z,81.27
2022-12-31T17:11:54.300Z,81.47
2022-12-31T17:14:26.420Z,80.88
2022-12-31T17:17:04.106Z,80.79
2022-12-31T17:19:50.193Z,81.12
2022-12-31T17:22:36.670Z,81.20
2022-12-31T17:25:07.823Z,81.33
2022-12-31T17:27:38.508Z,81.38
2022-12-31T17:30:40.384Z,81.26
2022-12-31T17:33:11.768Z,81.54
2022-12-31T17:35:43.495Z,81.68
2022-12-31T17:38:17.914Z,80.88
2022-12-31T17:40:51.216Z,80.97
2022-12-31T17:43:28.732Z,81.55
2022-12-31T17:46:03.353Z,81.86
2022-12-31T17:48:32.097Z,81.78
2022-12-31T17:51:02.939Z,82.14
2022-12-31T17:53:31.321Z,82.21
2022-12-31T17:56:08.166Z,82.25
2022-12-31T17:58:43.973Z,82.34
2022-12-31T18:01:15.988Z,82.15
2022-12-31T18:03:44.491Z,82.12
2022-12-31T18:06:16.648Z,82.33
2022-12-31T18:08:45.749Z,82.29
2022-12-31T18:11:23.554Z,82.59
2022-12-31T18:13:53.939Z,82.61
2022-12-31T18:16:22.178Z,82.70
2022-12-31T18:18:50.507Z,82.85
2022-12-31T18:21:26.061Z,82.99
2022-12-31T18:26:26.418Z,83.12
2022-12-31T18:28:55.136Z,83.04
2022-12-31T18:31:27.952Z,82.92
2022-12-31T18:33:59.675Z,83.06
2022-12-31T18:36:32.011Z,83.42
2022-12-31T18:39:00.144Z,83.78
2022-12-31T18:41:38.639Z,83.64
2022-12-31T18:44:07.586Z,82.76
2022-12-31T18:46:35.788Z,83.34
2022-12-31T18:49:04.258Z,83.06
2022-12-31T18:51:32.830Z,82.90
2022-12-31T18:54:02.551Z,83.13
2022-12-31T18:56:33.854Z,83.35
2022-12-31T18:59:03.481Z,84.07
2022-12-31T19:01:37.576Z,84.26
2022-12-31T19:04:22.815Z,84.31
2022-12-31T19:06:53.323Z,84.14
2022-12-31T19:09:50.209Z,84.29
2022-12-31T19:12:14.845Z,84.07
2022-12-31T19:14:43.440Z,83.83
2022-12-31T19:17:12.391Z,84.43
2022-12-31T19:19:40.801Z,84.72
2022-12-31T19:22:15.603Z,84.55
2022-12-31T19:24:43.922Z,84.39
2022-12-31T19:27:12.322Z,84.92
2022-12-31T19:29:40.634Z,85.28
2022-12-31T19:32:08.934Z,85.56
2022-12-31T19:34:37.398Z,85.55
2022-12-31T19:37:05.603Z,86.04
2022-12-31T19:39:33.905Z,85.89
2022-12-31T19:42:02.273Z,85.61
2022-12-31T19:44:30.664Z,85.48
2022-12-31T19:46:59.316Z,85.49
2022-12-31T19:49:27.536Z,85.55
2022-12-31T19:51:55.807Z,85.44
2022-12-31T19:54:24.020Z,85.36
2022-12-31T19:56:52.278Z,85.63
2022-12-31T19:59:20.578Z,85.54
2022-12-31T20:01:49.444Z,85.20
2022-12-31T20:04:18.265Z,85.22
2022-12-31T20:06:46.433Z,85.25
2022-12-31T20:09:14.855Z,85.22
2022-12-31T20:11:43.139Z,85.39
2022-12-31T20:14:12.134Z,85.48
2022-12-31T20:16:40.483Z,85.69
2022-12-31T20:19:10.581Z,85.43
2022-12-31T20:21:38.953Z,85.15
2022-12-31T20:24:07.996Z,85.26
2022-12-31T20:26:36.449Z,85.30
2022-12-31T20:29:04.678Z,85.45
2022-12-31T20:31:33.065Z,85.37
2022-12-31T20:34:01.307Z,85.10
2022-12-31T20:36:29.721Z,85.08
2022-12-31T20:38:58.796Z,85.23
2022-12-31T20:41:27.498Z,84.97
2022-12-31T20:43:55.796Z,85.22
2022-12-31T20:46:27.899Z,85.20
2022-12-31T20:49:02.026Z,85.16
2022-12-31T20:51:33.527Z,85.36
2022-12-31T20:54:11.842Z,85.33
2022-12-31T20:56:42.064Z,85.19
2022-12-31T20:59:11.034Z,85.39
2022-12-31T21:02:11.803Z,85.35
2022-12-31T21:04:27.892Z,85.57
2022-12-31T21:06:56.496Z,85.25
2022-12-31T21:09:25.086Z,85.29
2022-12-31T21:12:12.160Z,85.18
2022-12-31T21:14:44.734Z,85.11
2022-12-31T21:17:13.360Z,84.98
2022-12-31T21:19:41.605Z,84.76
2022-12-31T21:22:09.970Z,84.67
2022-12-31T21:24:39.279Z,85.04
2022-12-31T21:27:07.975Z,85.00
2022-12-31T21:29:50.379Z,84.97
2022-12-31T21:32:25.623Z,85.24
2022-12-31T21:35:23.221Z,85.20
2022-12-31T21:37:59.342Z,85.07
2022-12-31T21:40:30.759Z,84.73
2022-12-31T21:43:00.222Z,85.07
2022-12-31T21:45:28.754Z,85.22
2022-12-31T21:48:19.449Z,85.33
2022-12-31T21:50:50.491Z,85.47
2022-12-31T21:53:26.183Z,85.32
2022-12-31T21:56:09.443Z,85.03
2022-12-31T21:58:47.477Z,85.17
2022-12-31T22:01:40.669Z,85.04
2022-12-31T22:04:28.242Z,85.35
2022-12-31T22:06:57.923Z,85.51
2022-12-31T22:09:26.397Z,85.26
2022-12-31T22:11:54.963Z,85.32
2022-12-31T22:14:23.332Z,85.47
2022-12-31T22:16:52.380Z,85.44
2022-12-31T22:19:20.913Z,85.39
2022-12-31T22:21:49.215Z,85.47
2022-12-31T22:24:17.743Z,85.55
2022-12-31T22:26:46.955Z,85.28
2022-12-31T22:29:15.560Z,85.38
2022-12-31T22:31:43.962Z,85.12
2022-12-31T22:34:12.394Z,84.95
2022-12-31T22:36:40.718Z,85.01
2022-12-31T22:39:44.674Z,85.06
2022-12-31T22:42:04.437Z,85.22
2022-12-31T22:44:32.839Z,85.19
2022-12-31T22:47:01.365Z,85.21
2022-12-31T22:49:30.051Z,85.08
2022-12-31T22:52:01.713Z,84.71
2022-12-31T22:54:32.844Z,84.75
2022-12-31T22:57:02.800Z,84.79
2022-12-31T22:59:31.404Z,84.74
2022-12-31T23:01:59.883Z,84.84
2022-12-31T23:04:28.278Z,84.87
2022-12-31T23:06:56.831Z,84.97
2022-12-31T23:09:43.894Z,84.96
2022-12-31T23:12:12.299Z,85.11
2022-12-31T23:14:59.286Z,85.23
2022-12-31T23:17:46.674Z,85.13
2022-12-31T23:20:38.275Z,84.92
2022-12-31T23:23:11.759Z,85.08
2022-12-31T23:25:52.109Z,85.03
2022-12-31T23:28:25.776Z,85.21
2022-12-31T23:30:54.515Z,85.17
2022-12-31T23:33:25.779Z,85.54
2022-12-31T23:36:07.832Z,85.33
2022-12-31T23:38:36.309Z,85.24
2022-12-31T23:41:16.777Z,85.14
2022-12-31T23:43:46.064Z,85.13
2022-12-31T23:46:16.622Z,85.25
2022-12-31T23:48:45.093Z,85.21
2022-12-31T23:51:13.423Z,85.41
2022-12-31T23:53:41.809Z,85.20
2022-12-31T23:56:23.274Z,85.44
2022-12-31T23:58:57.307Z,85.41
